sensor_id;sensor_type;location;lat;lon;timestamp;temperature;humidity
21592;DHT22;10958;50.892;3.992;2024-01-07T00:01:27;3.60;99.90
21592;DHT22;10958;50.892;3.992;2024-01-07T00:03:53;3.70;99.90
21592;DHT22;10958;50.892;3.992;2024-01-07T00:06:18;3.70;99.90
21592;DHT22;10958;50.892;3.992;2024-01-07T00:08:44;3.70;99.90
21592;DHT22;10958;50.892;3.992;2024-01-07T00:11:10;3.80;99.90
21592;DHT22;10958;50.892;3.992;2024-01-07T00:13:36;3.80;99.90
21592;DHT22;10958;50.892;3.992;2024-01-07T00:16:03;3.80;99.90
21592;DHT22;10958;50.892;3.992;2024-01-07T00:18:31;3.80;99.90
21592;DHT22;10958;50.892;3.992;2024-01-07T00:20:59;3.80;99.90
21592;DHT22;10958;50.892;3.992;2024-01-07T00:23:24;3.90;99.90
21592;DHT22;10958;50.892;3.992;2024-01-07T00:25:50;3.90;99.90
21592;DHT22;10958;50.892;3.992;2024-01-07T00:28:16;4.00;99.90
21592;DHT22;10958;50.892;3.992;2024-01-07T00:30:41;4.00;99.90
21592;DHT22;10958;50.892;3.992;2024-01-07T00:33:09;4.00;99.90
21592;DHT22;10958;50.892;3.992;2024-01-07T00:35:35;3.90;99.90
21592;DHT22;10958;50.892;3.992;2024-01-07T00:38:03;3.90;99.90
21592;DHT22;10958;50.892;3.992;2024-01-07T00:40:28;3.90;99.90
21592;DHT22;10958;50.892;3.992;2024-01-07T00:42:54;4.10;99.90
21592;DHT22;10958;50.892;3.992;2024-01-07T00:45:20;4.10;99.90
21592;DHT22;10958;50.892;3.992;2024-01-07T00:47:47;4.00;99.90
21592;DHT22;10958;50.892;3.992;2024-01-07T00:50:13;4.00;99.90
21592;DHT22;10958;50.892;3.992;2024-01-07T00:52:38;3.90;99.90
21592;DHT22;10958;50.892;3.992;2024-01-07T00:55:05;3.90;99.90
21592;DHT22;10958;50.892;3.992;2024-01-07T00:57:32;3.80;99.90
21592;DHT22;10958;50.892;3.992;2024-01-07T00:59:58;3.80;99.90
21592;DHT22;10958;50.892;3.992;2024-01-07T01:02:24;3.80;99.90
21592;DHT22;10958;50.892;3.992;2024-01-07T01:04:49;3.80;99.90
21592;DHT22;10958;50.892;3.992;2024-01-07T01:07:15;3.90;99.90
21592;DHT22;10958;50.892;3.992;2024-01-07T01:09:43;3.90;99.90
21592;DHT22;10958;50.892;3.992;2024-01-07T01:12:08;3.80;99.90
21592;DHT22;10958;50.892;3.992;2024-01-07T01:14:34;3.90;99.90
21592;DHT22;10958;50.892;3.992;2024-01-07T01:17:00;3.90;99.90
21592;DHT22;10958;50.892;3.992;2024-01-07T01:19:25;4.00;99.90
21592;DHT22;10958;50.892;3.992;2024-01-07T01:21:51;4.00;99.90
21592;DHT22;10958;50.892;3.992;2024-01-07T01:24:16;4.10;99.90
21592;DHT22;10958;50.892;3.992;2024-01-07T01:26:42;4.10;99.90
21592;DHT22;10958;50.892;3.992;2024-01-07T01:29:08;4.20;99.90
21592;DHT22;10958;50.892;3.992;2024-01-07T01:31:33;4.20;99.90
21592;DHT22;10958;50.892;3.992;2024-01-07T01:34:02;4.20;99.90
21592;DHT22;10958;50.892;3.992;2024-01-07T01:36:31;4.30;99.90
21592;DHT22;10958;50.892;3.992;2024-01-07T01:38:57;4.30;99.90
21592;DHT22;10958;50.892;3.992;2024-01-07T01:41:22;4.40;99.90
21592;DHT22;10958;50.892;3.992;2024-01-07T01:43:48;4.20;99.90
21592;DHT22;10958;50.892;3.992;2024-01-07T01:46:14;4.30;99.90
21592;DHT22;10958;50.892;3.992;2024-01-07T01:48:42;4.20;99.90
21592;DHT22;10958;50.892;3.992;2024-01-07T01:51:08;4.10;99.90
21592;DHT22;10958;50.892;3.992;2024-01-07T01:53:37;3.90;99.90
21592;DHT22;10958;50.892;3.992;2024-01-07T01:56:03;4.00;99.90
21592;DHT22;10958;50.892;3.992;2024-01-07T01:58:29;4.10;99.90
21592;DHT22;10958;50.892;3.992;2024-01-07T02:00:55;4.00;99.90
21592;DHT22;10958;50.892;3.992;2024-01-07T02:03:24;4.00;99.90
21592;DHT22;10958;50.892;3.992;2024-01-07T02:05:54;4.10;99.90
21592;DHT22;10958;50.892;3.992;2024-01-07T02:08:20;4.10;99.90
21592;DHT22;10958;50.892;3.992;2024-01-07T02:10:46;4.00;99.90
21592;DHT22;10958;50.892;3.992;2024-01-07T02:13:12;4.00;99.90
21592;DHT22;10958;50.892;3.992;2024-01-07T02:15:40;3.90;99.90
21592;DHT22;10958;50.892;3.992;2024-01-07T02:18:05;4.00;99.90
21592;DHT22;10958;50.892;3.992;2024-01-07T02:20:33;4.00;99.90
21592;DHT22;10958;50.892;3.992;2024-01-07T02:22:59;3.90;99.90
21592;DHT22;10958;50.892;3.992;2024-01-07T02:25:27;3.80;99.90
21592;DHT22;10958;50.892;3.992;2024-01-07T02:27:52;3.70;99.90
21592;DHT22;10958;50.892;3.992;2024-01-07T02:30:18;3.60;99.90
21592;DHT22;10958;50.892;3.992;2024-01-07T02:32:44;3.70;99.90
21592;DHT22;10958;50.892;3.992;2024-01-07T02:35:12;3.60;99.90
21592;DHT22;10958;50.892;3.992;2024-01-07T02:37:37;3.60;99.90
21592;DHT22;10958;50.892;3.992;2024-01-07T02:40:03;3.70;99.90
21592;DHT22;10958;50.892;3.992;2024-01-07T02:42:29;3.80;99.90
21592;DHT22;10958;50.892;3.992;2024-01-07T02:44:57;3.80;99.90
21592;DHT22;10958;50.892;3.992;2024-01-07T02:47:23;3.80;99.90
21592;DHT22;10958;50.892;3.992;2024-01-07T02:49:48;3.80;99.90
21592;DHT22;10958;50.892;3.992;2024-01-07T02:52:14;3.80;99.90
21592;DHT22;10958;50.892;3.992;2024-01-07T02:54:40;3.80;99.90
21592;DHT22;10958;50.892;3.992;2024-01-07T02:57:05;3.80;99.90
21592;DHT22;10958;50.892;3.992;2024-01-07T02:59:31;3.90;99.90
21592;DHT22;10958;50.892;3.992;2024-01-07T03:01:57;3.90;99.90
21592;DHT22;10958;50.892;3.992;2024-01-07T03:04:22;3.80;99.90
21592;DHT22;10958;50.892;3.992;2024-01-07T03:06:48;3.80;99.90
21592;DHT22;10958;50.892;3.992;2024-01-07T03:09:14;3.70;99.90
21592;DHT22;10958;50.892;3.992;2024-01-07T03:11:42;3.70;99.90
21592;DHT22;10958;50.892;3.992;2024-01-07T03:14:07;3.80;99.90
21592;DHT22;10958;50.892;3.992;2024-01-07T03:16:33;3.80;99.90
21592;DHT22;10958;50.892;3.992;2024-01-07T03:19:01;3.70;99.90
21592;DHT22;10958;50.892;3.992;2024-01-07T03:21:28;3.70;99.90
21592;DHT22;10958;50.892;3.992;2024-01-07T03:23:53;3.60;99.90
21592;DHT22;10958;50.892;3.992;2024-01-07T03:26:20;3.60;99.90
21592;DHT22;10958;50.892;3.992;2024-01-07T03:28:46;3.70;99.90
21592;DHT22;10958;50.892;3.992;2024-01-07T03:31:16;3.90;99.90
21592;DHT22;10958;50.892;3.992;2024-01-07T03:33:42;3.80;99.90
21592;DHT22;10958;50.892;3.992;2024-01-07T03:36:09;3.70;99.90
21592;DHT22;10958;50.892;3.992;2024-01-07T03:38:36;3.70;99.90
21592;DHT22;10958;50.892;3.992;2024-01-07T03:41:04;3.80;99.90
21592;DHT22;10958;50.892;3.992;2024-01-07T03:43:33;3.90;99.90
21592;DHT22;10958;50.892;3.992;2024-01-07T03:45:59;3.80;99.90
21592;DHT22;10958;50.892;3.992;2024-01-07T03:48:25;3.50;99.90
21592;DHT22;10958;50.892;3.992;2024-01-07T03:50:51;3.50;99.90
21592;DHT22;10958;50.892;3.992;2024-01-07T03:53:18;3.50;99.90
21592;DHT22;10958;50.892;3.992;2024-01-07T03:55:44;3.40;99.90
21592;DHT22;10958;50.892;3.992;2024-01-07T03:58:10;3.30;99.90
21592;DHT22;10958;50.892;3.992;2024-01-07T04:00:36;3.20;99.90
21592;DHT22;10958;50.892;3.992;2024-01-07T04:03:04;3.30;99.90
21592;DHT22;10958;50.892;3.992;2024-01-07T04:05:30;3.40;99.90
21592;DHT22;10958;50.892;3.992;2024-01-07T04:08:00;3.50;99.90
21592;DHT22;10958;50.892;3.992;2024-01-07T04:10:25;3.40;99.90
21592;DHT22;10958;50.892;3.992;2024-01-07T04:12:51;3.30;99.90
21592;DHT22;10958;50.892;3.992;2024-01-07T04:15:19;3.40;99.90
21592;DHT22;10958;50.892;3.992;2024-01-07T04:17:45;3.30;99.90
21592;DHT22;10958;50.892;3.992;2024-01-07T04:20:13;3.30;99.90
21592;DHT22;10958;50.892;3.992;2024-01-07T04:22:39;3.50;99.90
21592;DHT22;10958;50.892;3.992;2024-01-07T04:25:05;3.50;99.90
21592;DHT22;10958;50.892;3.992;2024-01-07T04:27:39;3.50;99.90
21592;DHT22;10958;50.892;3.992;2024-01-07T04:30:06;3.30;99.90
21592;DHT22;10958;50.892;3.992;2024-01-07T04:32:32;3.40;99.90
21592;DHT22;10958;50.892;3.992;2024-01-07T04:34:58;3.40;99.90
21592;DHT22;10958;50.892;3.992;2024-01-07T04:37:26;3.50;99.90
21592;DHT22;10958;50.892;3.992;2024-01-07T04:39:52;3.40;99.90
21592;DHT22;10958;50.892;3.992;2024-01-07T04:42:18;3.40;99.90
21592;DHT22;10958;50.892;3.992;2024-01-07T04:44:44;3.40;99.90
21592;DHT22;10958;50.892;3.992;2024-01-07T04:47:26;3.40;99.90
21592;DHT22;10958;50.892;3.992;2024-01-07T04:49:53;3.50;99.90
21592;DHT22;10958;50.892;3.992;2024-01-07T04:52:19;3.50;99.90
21592;DHT22;10958;50.892;3.992;2024-01-07T04:54:47;3.60;99.90
21592;DHT22;10958;50.892;3.992;2024-01-07T04:57:12;3.70;99.90
21592;DHT22;10958;50.892;3.992;2024-01-07T04:59:38;3.70;99.90
21592;DHT22;10958;50.892;3.992;2024-01-07T05:02:04;3.60;99.90
21592;DHT22;10958;50.892;3.992;2024-01-07T05:04:32;3.60;99.90
21592;DHT22;10958;50.892;3.992;2024-01-07T05:07:00;3.60;99.90
21592;DHT22;10958;50.892;3.992;2024-01-07T05:09:25;3.50;99.90
21592;DHT22;10958;50.892;3.992;2024-01-07T05:11:51;3.50;99.90
21592;DHT22;10958;50.892;3.992;2024-01-07T05:14:17;3.50;99.90
21592;DHT22;10958;50.892;3.992;2024-01-07T05:16:47;3.30;99.90
21592;DHT22;10958;50.892;3.992;2024-01-07T05:19:12;3.10;99.90
21592;DHT22;10958;50.892;3.992;2024-01-07T05:21:40;3.00;99.90
21592;DHT22;10958;50.892;3.992;2024-01-07T05:24:06;3.00;99.90
21592;DHT22;10958;50.892;3.992;2024-01-07T05:26:38;2.90;99.90
21592;DHT22;10958;50.892;3.992;2024-01-07T05:29:06;3.00;99.90
21592;DHT22;10958;50.892;3.992;2024-01-07T05:31:32;2.90;99.90
21592;DHT22;10958;50.892;3.992;2024-01-07T05:34:02;3.00;99.90
21592;DHT22;10958;50.892;3.992;2024-01-07T05:36:28;3.00;99.90
21592;DHT22;10958;50.892;3.992;2024-01-07T05:38:53;3.00;99.90
21592;DHT22;10958;50.892;3.992;2024-01-07T05:41:19;3.10;99.90
21592;DHT22;10958;50.892;3.992;2024-01-07T05:43:45;3.20;99.90
21592;DHT22;10958;50.892;3.992;2024-01-07T05:46:11;3.00;99.90
21592;DHT22;10958;50.892;3.992;2024-01-07T05:48:42;3.10;99.90
21592;DHT22;10958;50.892;3.992;2024-01-07T05:51:08;3.10;99.90
21592;DHT22;10958;50.892;3.992;2024-01-07T05:53:34;3.20;99.90
21592;DHT22;10958;50.892;3.992;2024-01-07T05:56:02;3.20;99.90
21592;DHT22;10958;50.892;3.992;2024-01-07T05:58:29;3.20;99.90
21592;DHT22;10958;50.892;3.992;2024-01-07T06:00:57;3.10;99.90
21592;DHT22;10958;50.892;3.992;2024-01-07T06:03:22;3.10;99.90
21592;DHT22;10958;50.892;3.992;2024-01-07T06:05:48;3.10;99.90
21592;DHT22;10958;50.892;3.992;2024-01-07T06:08:16;3.10;99.90
21592;DHT22;10958;50.892;3.992;2024-01-07T06:10:41;3.10;99.90
21592;DHT22;10958;50.892;3.992;2024-01-07T06:13:09;3.00;99.90
21592;DHT22;10958;50.892;3.992;2024-01-07T06:15:35;3.10;99.90
21592;DHT22;10958;50.892;3.992;2024-01-07T06:18:01;3.00;99.90
21592;DHT22;10958;50.892;3.992;2024-01-07T06:20:26;3.00;99.90
21592;DHT22;10958;50.892;3.992;2024-01-07T06:22:53;2.90;99.90
21592;DHT22;10958;50.892;3.992;2024-01-07T06:25:19;3.00;99.90
21592;DHT22;10958;50.892;3.992;2024-01-07T06:27:45;3.00;99.90
21592;DHT22;10958;50.892;3.992;2024-01-07T06:30:12;3.10;99.90
21592;DHT22;10958;50.892;3.992;2024-01-07T06:32:37;3.20;99.90
21592;DHT22;10958;50.892;3.992;2024-01-07T06:35:03;3.20;99.90
21592;DHT22;10958;50.892;3.992;2024-01-07T06:37:30;3.00;99.90
21592;DHT22;10958;50.892;3.992;2024-01-07T06:39:58;3.00;99.90
21592;DHT22;10958;50.892;3.992;2024-01-07T06:42:24;2.90;99.90
21592;DHT22;10958;50.892;3.992;2024-01-07T06:44:52;2.90;99.90
21592;DHT22;10958;50.892;3.992;2024-01-07T06:47:18;3.00;99.90
21592;DHT22;10958;50.892;3.992;2024-01-07T06:49:44;3.00;99.90
21592;DHT22;10958;50.892;3.992;2024-01-07T06:52:09;3.00;99.90
21592;DHT22;10958;50.892;3.992;2024-01-07T06:54:38;3.10;99.90
21592;DHT22;10958;50.892;3.992;2024-01-07T06:57:06;3.00;99.90
21592;DHT22;10958;50.892;3.992;2024-01-07T06:59:31;2.90;99.90
21592;DHT22;10958;50.892;3.992;2024-01-07T07:01:57;2.80;99.90
21592;DHT22;10958;50.892;3.992;2024-01-07T07:04:23;2.80;99.90
21592;DHT22;10958;50.892;3.992;2024-01-07T07:06:49;2.70;99.90
21592;DHT22;10958;50.892;3.992;2024-01-07T07:09:14;2.80;99.90
21592;DHT22;10958;50.892;3.992;2024-01-07T07:11:40;2.80;99.90
21592;DHT22;10958;50.892;3.992;2024-01-07T07:14:09;2.80;99.90
21592;DHT22;10958;50.892;3.992;2024-01-07T07:16:37;3.00;99.90
21592;DHT22;10958;50.892;3.992;2024-01-07T07:19:02;3.00;99.90
21592;DHT22;10958;50.892;3.992;2024-01-07T07:21:28;2.90;99.90
21592;DHT22;10958;50.892;3.992;2024-01-07T07:23:53;2.90;99.90
21592;DHT22;10958;50.892;3.992;2024-01-07T07:26:19;2.90;99.90
21592;DHT22;10958;50.892;3.992;2024-01-07T07:28:45;2.90;99.90
21592;DHT22;10958;50.892;3.992;2024-01-07T07:31:11;2.80;99.90
21592;DHT22;10958;50.892;3.992;2024-01-07T07:33:40;2.90;99.90
21592;DHT22;10958;50.892;3.992;2024-01-07T07:36:06;2.90;99.90
21592;DHT22;10958;50.892;3.992;2024-01-07T07:38:37;2.70;99.90
21592;DHT22;10958;50.892;3.992;2024-01-07T07:41:06;2.60;99.90
21592;DHT22;10958;50.892;3.992;2024-01-07T07:43:34;2.70;99.90
21592;DHT22;10958;50.892;3.992;2024-01-07T07:46:02;2.70;99.90
21592;DHT22;10958;50.892;3.992;2024-01-07T07:48:28;2.60;99.90
21592;DHT22;10958;50.892;3.992;2024-01-07T07:50:54;2.60;99.90
21592;DHT22;10958;50.892;3.992;2024-01-07T07:53:22;2.60;99.90
21592;DHT22;10958;50.892;3.992;2024-01-07T07:55:50;2.60;99.90
21592;DHT22;10958;50.892;3.992;2024-01-07T07:58:16;2.60;99.90
21592;DHT22;10958;50.892;3.992;2024-01-07T08:00:42;2.70;99.90
21592;DHT22;10958;50.892;3.992;2024-01-07T08:03:07;2.70;99.90
21592;DHT22;10958;50.892;3.992;2024-01-07T08:05:33;2.70;99.90
21592;DHT22;10958;50.892;3.992;2024-01-07T08:08:01;2.70;99.90
21592;DHT22;10958;50.892;3.992;2024-01-07T08:10:27;2.80;99.90
21592;DHT22;10958;50.892;3.992;2024-01-07T08:12:54;2.80;99.90
21592;DHT22;10958;50.892;3.992;2024-01-07T08:15:20;2.80;99.90
21592;DHT22;10958;50.892;3.992;2024-01-07T08:17:45;2.60;99.90
21592;DHT22;10958;50.892;3.992;2024-01-07T08:20:14;2.50;99.90
21592;DHT22;10958;50.892;3.992;2024-01-07T08:22:39;2.40;99.90
21592;DHT22;10958;50.892;3.992;2024-01-07T08:25:05;2.50;99.90
21592;DHT22;10958;50.892;3.992;2024-01-07T08:27:31;2.50;99.90
21592;DHT22;10958;50.892;3.992;2024-01-07T08:29:58;2.50;99.90
21592;DHT22;10958;50.892;3.992;2024-01-07T08:32:23;2.50;99.90
21592;DHT22;10958;50.892;3.992;2024-01-07T08:34:49;2.60;99.90
21592;DHT22;10958;50.892;3.992;2024-01-07T08:37:15;2.60;99.90
21592;DHT22;10958;50.892;3.992;2024-01-07T08:39:40;2.70;99.90
21592;DHT22;10958;50.892;3.992;2024-01-07T08:42:06;2.70;99.90
21592;DHT22;10958;50.892;3.992;2024-01-07T08:44:37;2.70;99.90
21592;DHT22;10958;50.892;3.992;2024-01-07T08:47:07;2.70;99.90
21592;DHT22;10958;50.892;3.992;2024-01-07T08:49:32;2.60;99.90
21592;DHT22;10958;50.892;3.992;2024-01-07T08:51:59;2.60;99.90
21592;DHT22;10958;50.892;3.992;2024-01-07T08:54:24;2.60;99.90
21592;DHT22;10958;50.892;3.992;2024-01-07T08:56:53;2.60;99.90
21592;DHT22;10958;50.892;3.992;2024-01-07T08:59:19;2.50;99.90
21592;DHT22;10958;50.892;3.992;2024-01-07T09:01:45;2.50;99.90
21592;DHT22;10958;50.892;3.992;2024-01-07T09:04:15;2.60;99.90
21592;DHT22;10958;50.892;3.992;2024-01-07T09:06:46;2.50;99.90
21592;DHT22;10958;50.892;3.992;2024-01-07T09:09:14;2.50;99.90
21592;DHT22;10958;50.892;3.992;2024-01-07T09:11:42;2.60;99.90
21592;DHT22;10958;50.892;3.992;2024-01-07T09:14:08;2.70;99.90
21592;DHT22;10958;50.892;3.992;2024-01-07T09:16:34;2.70;99.90
21592;DHT22;10958;50.892;3.992;2024-01-07T09:18:59;2.90;99.90
21592;DHT22;10958;50.892;3.992;2024-01-07T09:21:30;2.90;99.90
21592;DHT22;10958;50.892;3.992;2024-01-07T09:23:56;2.90;99.90
21592;DHT22;10958;50.892;3.992;2024-01-07T09:26:22;2.90;99.90
21592;DHT22;10958;50.892;3.992;2024-01-07T09:28:49;2.90;99.90
21592;DHT22;10958;50.892;3.992;2024-01-07T09:31:15;2.80;99.90
21592;DHT22;10958;50.892;3.992;2024-01-07T09:33:41;2.80;99.90
21592;DHT22;10958;50.892;3.992;2024-01-07T09:36:07;2.80;99.90
21592;DHT22;10958;50.892;3.992;2024-01-07T09:38:33;2.70;99.90
21592;DHT22;10958;50.892;3.992;2024-01-07T09:40:58;2.70;99.90
21592;DHT22;10958;50.892;3.992;2024-01-07T09:43:24;2.80;99.90
21592;DHT22;10958;50.892;3.992;2024-01-07T09:45:51;2.80;99.90
21592;DHT22;10958;50.892;3.992;2024-01-07T09:48:21;2.70;99.90
21592;DHT22;10958;50.892;3.992;2024-01-07T09:50:47;2.70;99.90
21592;DHT22;10958;50.892;3.992;2024-01-07T09:53:15;2.60;99.90
21592;DHT22;10958;50.892;3.992;2024-01-07T09:56:07;2.70;99.90
21592;DHT22;10958;50.892;3.992;2024-01-07T09:58:36;2.70;99.90
21592;DHT22;10958;50.892;3.992;2024-01-07T10:01:02;2.60;99.90
21592;DHT22;10958;50.892;3.992;2024-01-07T10:03:35;2.50;99.90
21592;DHT22;10958;50.892;3.992;2024-01-07T10:06:00;2.50;99.90
21592;DHT22;10958;50.892;3.992;2024-01-07T10:08:26;2.50;99.90
21592;DHT22;10958;50.892;3.992;2024-01-07T10:10:52;2.40;99.90
21592;DHT22;10958;50.892;3.992;2024-01-07T10:13:22;2.50;99.90
21592;DHT22;10958;50.892;3.992;2024-01-07T10:15:48;2.50;99.90
21592;DHT22;10958;50.892;3.992;2024-01-07T10:18:16;2.40;99.90
21592;DHT22;10958;50.892;3.992;2024-01-07T10:20:43;2.50;99.90
21592;DHT22;10958;50.892;3.992;2024-01-07T10:23:09;2.40;99.90
21592;DHT22;10958;50.892;3.992;2024-01-07T10:25:36;2.50;99.90
21592;DHT22;10958;50.892;3.992;2024-01-07T10:28:03;2.50;99.90
21592;DHT22;10958;50.892;3.992;2024-01-07T10:30:30;2.60;99.90
21592;DHT22;10958;50.892;3.992;2024-01-07T10:33:00;2.60;99.90
21592;DHT22;10958;50.892;3.992;2024-01-07T10:35:36;2.50;99.90
21592;DHT22;10958;50.892;3.992;2024-01-07T10:38:03;2.50;99.90
21592;DHT22;10958;50.892;3.992;2024-01-07T10:40:42;2.50;99.90
21592;DHT22;10958;50.892;3.992;2024-01-07T10:43:08;2.40;99.90
21592;DHT22;10958;50.892;3.992;2024-01-07T10:45:34;2.40;99.90
21592;DHT22;10958;50.892;3.992;2024-01-07T10:48:06;2.40;99.90
21592;DHT22;10958;50.892;3.992;2024-01-07T10:50:35;2.40;99.90
21592;DHT22;10958;50.892;3.992;2024-01-07T10:53:06;2.50;99.90
21592;DHT22;10958;50.892;3.992;2024-01-07T10:55:34;2.30;99.90
21592;DHT22;10958;50.892;3.992;2024-01-07T10:58:03;2.40;99.90
21592;DHT22;10958;50.892;3.992;2024-01-07T11:03:45;2.50;99.90
21592;DHT22;10958;50.892;3.992;2024-01-07T11:09:36;2.50;99.90
21592;DHT22;10958;50.892;3.992;2024-01-07T11:12:03;2.40;99.90
21592;DHT22;10958;50.892;3.992;2024-01-07T11:17:07;2.40;99.90
21592;DHT22;10958;50.892;3.992;2024-01-07T11:19:35;2.40;99.90
21592;DHT22;10958;50.892;3.992;2024-01-07T11:24:50;2.20;99.90
21592;DHT22;10958;50.892;3.992;2024-01-07T11:27:16;2.20;99.90
21592;DHT22;10958;50.892;3.992;2024-01-07T11:29:50;2.30;99.90
21592;DHT22;10958;50.892;3.992;2024-01-07T11:32:18;2.30;99.90
21592;DHT22;10958;50.892;3.992;2024-01-07T11:34:46;2.30;99.90
21592;DHT22;10958;50.892;3.992;2024-01-07T11:37:15;2.40;99.90
21592;DHT22;10958;50.892;3.992;2024-01-07T11:39:48;2.50;99.90
21592;DHT22;10958;50.892;3.992;2024-01-07T11:42:15;2.30;99.90
21592;DHT22;10958;50.892;3.992;2024-01-07T11:47:21;2.20;99.90
21592;DHT22;10958;50.892;3.992;2024-01-07T11:49:50;2.10;99.90
21592;DHT22;10958;50.892;3.992;2024-01-07T11:52:15;2.20;99.90
21592;DHT22;10958;50.892;3.992;2024-01-07T11:54:44;2.20;99.90
21592;DHT22;10958;50.892;3.992;2024-01-07T11:57:13;2.20;99.90
21592;DHT22;10958;50.892;3.992;2024-01-07T11:59:41;2.30;99.90
21592;DHT22;10958;50.892;3.992;2024-01-07T12:02:08;2.20;99.90
21592;DHT22;10958;50.892;3.992;2024-01-07T12:04:34;2.20;99.90
21592;DHT22;10958;50.892;3.992;2024-01-07T12:07:01;2.30;99.90
21592;DHT22;10958;50.892;3.992;2024-01-07T12:09:29;2.40;99.90
21592;DHT22;10958;50.892;3.992;2024-01-07T12:11:55;2.40;99.90
21592;DHT22;10958;50.892;3.992;2024-01-07T12:14:21;2.30;99.90
21592;DHT22;10958;50.892;3.992;2024-01-07T12:16:47;2.20;99.90
21592;DHT22;10958;50.892;3.992;2024-01-07T12:19:14;2.20;99.90
21592;DHT22;10958;50.892;3.992;2024-01-07T12:21:40;2.40;99.90
21592;DHT22;10958;50.892;3.992;2024-01-07T12:24:06;2.30;99.90
21592;DHT22;10958;50.892;3.992;2024-01-07T12:26:33;2.40;99.90
21592;DHT22;10958;50.892;3.992;2024-01-07T12:29:00;2.50;99.90
21592;DHT22;10958;50.892;3.992;2024-01-07T12:31:30;2.50;99.90
21592;DHT22;10958;50.892;3.992;2024-01-07T12:33:57;2.50;99.90
21592;DHT22;10958;50.892;3.992;2024-01-07T12:36:23;2.50;99.90
21592;DHT22;10958;50.892;3.992;2024-01-07T12:38:52;2.50;99.90
21592;DHT22;10958;50.892;3.992;2024-01-07T12:41:22;2.50;99.90
21592;DHT22;10958;50.892;3.992;2024-01-07T12:43:48;2.50;99.90
21592;DHT22;10958;50.892;3.992;2024-01-07T12:46:17;2.20;99.90
21592;DHT22;10958;50.892;3.992;2024-01-07T12:48:44;2.30;99.90
21592;DHT22;10958;50.892;3.992;2024-01-07T12:51:10;2.30;99.90
21592;DHT22;10958;50.892;3.992;2024-01-07T12:53:36;2.30;99.90
21592;DHT22;10958;50.892;3.992;2024-01-07T12:56:02;2.30;99.90
21592;DHT22;10958;50.892;3.992;2024-01-07T12:58:28;2.40;99.90
21592;DHT22;10958;50.892;3.992;2024-01-07T13:00:56;2.50;99.90
21592;DHT22;10958;50.892;3.992;2024-01-07T13:03:25;2.60;99.90
21592;DHT22;10958;50.892;3.992;2024-01-07T13:05:51;2.50;99.90
21592;DHT22;10958;50.892;3.992;2024-01-07T13:08:17;2.40;99.90
21592;DHT22;10958;50.892;3.992;2024-01-07T13:10:49;2.40;99.90
21592;DHT22;10958;50.892;3.992;2024-01-07T13:13:18;2.20;99.90
21592;DHT22;10958;50.892;3.992;2024-01-07T13:15:43;2.30;99.90
21592;DHT22;10958;50.892;3.992;2024-01-07T13:18:10;2.40;99.90
21592;DHT22;10958;50.892;3.992;2024-01-07T13:20:37;2.50;99.90
21592;DHT22;10958;50.892;3.992;2024-01-07T13:23:05;2.50;99.90
21592;DHT22;10958;50.892;3.992;2024-01-07T13:25:31;2.40;99.90
21592;DHT22;10958;50.892;3.992;2024-01-07T13:28:01;2.30;99.90
21592;DHT22;10958;50.892;3.992;2024-01-07T13:30:29;2.20;99.90
21592;DHT22;10958;50.892;3.992;2024-01-07T13:32:54;2.30;99.90
21592;DHT22;10958;50.892;3.992;2024-01-07T13:35:23;2.50;99.90
21592;DHT22;10958;50.892;3.992;2024-01-07T13:37:52;2.40;99.90
21592;DHT22;10958;50.892;3.992;2024-01-07T13:40:18;2.40;99.90
21592;DHT22;10958;50.892;3.992;2024-01-07T13:42:47;2.50;99.90
21592;DHT22;10958;50.892;3.992;2024-01-07T13:45:20;2.50;99.90
21592;DHT22;10958;50.892;3.992;2024-01-07T13:47:48;2.40;99.90
21592;DHT22;10958;50.892;3.992;2024-01-07T13:50:16;2.20;99.90
21592;DHT22;10958;50.892;3.992;2024-01-07T13:52:43;2.30;99.90
21592;DHT22;10958;50.892;3.992;2024-01-07T13:55:09;2.20;99.90
21592;DHT22;10958;50.892;3.992;2024-01-07T13:57:38;2.30;99.90
21592;DHT22;10958;50.892;3.992;2024-01-07T14:00:07;2.30;99.90
21592;DHT22;10958;50.892;3.992;2024-01-07T14:02:41;2.40;99.90
21592;DHT22;10958;50.892;3.992;2024-01-07T14:05:09;2.30;99.90
21592;DHT22;10958;50.892;3.992;2024-01-07T14:07:35;2.20;99.90
21592;DHT22;10958;50.892;3.992;2024-01-07T14:10:05;2.10;99.90
21592;DHT22;10958;50.892;3.992;2024-01-07T14:12:31;2.00;99.90
21592;DHT22;10958;50.892;3.992;2024-01-07T14:14:57;2.00;99.90
21592;DHT22;10958;50.892;3.992;2024-01-07T14:17:24;2.00;99.90
21592;DHT22;10958;50.892;3.992;2024-01-07T14:19:51;2.00;99.90
21592;DHT22;10958;50.892;3.992;2024-01-07T14:22:20;2.10;99.90
21592;DHT22;10958;50.892;3.992;2024-01-07T14:24:46;2.20;99.90
21592;DHT22;10958;50.892;3.992;2024-01-07T14:27:17;2.00;99.90
21592;DHT22;10958;50.892;3.992;2024-01-07T14:29:45;2.00;99.90
21592;DHT22;10958;50.892;3.992;2024-01-07T14:32:13;1.90;99.90
21592;DHT22;10958;50.892;3.992;2024-01-07T14:34:40;1.90;99.90
21592;DHT22;10958;50.892;3.992;2024-01-07T14:37:08;1.90;99.90
21592;DHT22;10958;50.892;3.992;2024-01-07T14:39:40;1.90;99.90
21592;DHT22;10958;50.892;3.992;2024-01-07T14:42:08;2.00;99.90
21592;DHT22;10958;50.892;3.992;2024-01-07T14:44:34;2.20;99.90
21592;DHT22;10958;50.892;3.992;2024-01-07T14:47:01;2.10;99.90
21592;DHT22;10958;50.892;3.992;2024-01-07T14:49:26;2.10;99.90
21592;DHT22;10958;50.892;3.992;2024-01-07T14:51:52;1.90;99.90
21592;DHT22;10958;50.892;3.992;2024-01-07T14:54:21;1.80;99.90
21592;DHT22;10958;50.892;3.992;2024-01-07T14:56:49;1.90;99.90
21592;DHT22;10958;50.892;3.992;2024-01-07T14:59:15;2.00;99.90
21592;DHT22;10958;50.892;3.992;2024-01-07T15:01:43;2.10;99.90
21592;DHT22;10958;50.892;3.992;2024-01-07T15:04:11;2.00;99.90
21592;DHT22;10958;50.892;3.992;2024-01-07T15:06:43;1.90;99.90
21592;DHT22;10958;50.892;3.992;2024-01-07T15:09:13;2.00;99.90
21592;DHT22;10958;50.892;3.992;2024-01-07T15:11:42;1.80;99.90
21592;DHT22;10958;50.892;3.992;2024-01-07T15:14:10;1.80;99.90
21592;DHT22;10958;50.892;3.992;2024-01-07T15:16:38;1.70;99.90
21592;DHT22;10958;50.892;3.992;2024-01-07T15:19:04;1.80;99.90
21592;DHT22;10958;50.892;3.992;2024-01-07T15:21:29;1.60;99.90
21592;DHT22;10958;50.892;3.992;2024-01-07T15:23:57;1.70;99.90
21592;DHT22;10958;50.892;3.992;2024-01-07T15:26:23;1.70;99.90
21592;DHT22;10958;50.892;3.992;2024-01-07T15:28:49;1.80;99.90
21592;DHT22;10958;50.892;3.992;2024-01-07T15:31:15;1.80;99.90
21592;DHT22;10958;50.892;3.992;2024-01-07T15:33:43;1.80;99.90
21592;DHT22;10958;50.892;3.992;2024-01-07T15:36:08;1.80;99.90
21592;DHT22;10958;50.892;3.992;2024-01-07T15:38:36;1.70;99.90
21592;DHT22;10958;50.892;3.992;2024-01-07T15:41:02;1.70;99.90
21592;DHT22;10958;50.892;3.992;2024-01-07T15:43:28;1.80;99.90
21592;DHT22;10958;50.892;3.992;2024-01-07T15:45:53;1.80;99.90
21592;DHT22;10958;50.892;3.992;2024-01-07T15:48:19;1.90;99.90
21592;DHT22;10958;50.892;3.992;2024-01-07T15:50:45;1.90;99.90
21592;DHT22;10958;50.892;3.992;2024-01-07T15:53:11;1.80;99.90
21592;DHT22;10958;50.892;3.992;2024-01-07T15:55:39;1.80;99.90
21592;DHT22;10958;50.892;3.992;2024-01-07T15:58:08;1.70;99.90